sensor_id;sensor_type;location;lat;lon;timestamp;temperature;humidity
21582;DHT22;10952;50.836;4.348;2022-11-15T00:01:48;13.40;99.90
21582;DHT22;10952;50.836;4.348;2022-11-15T00:04:14;13.40;99.90
21582;DHT22;10952;50.836;4.348;2022-11-15T00:06:40;13.40;99.90
21582;DHT22;10952;50.836;4.348;2022-11-15T00:09:06;13.50;99.90
21582;DHT22;10952;50.836;4.348;2022-11-15T00:11:32;13.40;99.90
21582;DHT22;10952;50.836;4.348;2022-11-15T00:13:58;13.50;99.90
21582;DHT22;10952;50.836;4.348;2022-11-15T00:16:24;13.40;99.90
21582;DHT22;10952;50.836;4.348;2022-11-15T00:18:50;13.50;99.90
21582;DHT22;10952;50.836;4.348;2022-11-15T00:21:17;13.60;99.90
21582;DHT22;10952;50.836;4.348;2022-11-15T00:23:43;13.60;99.90
21582;DHT22;10952;50.836;4.348;2022-11-15T00:26:13;13.50;99.90
21582;DHT22;10952;50.836;4.348;2022-11-15T00:28:40;13.50;99.90
21582;DHT22;10952;50.836;4.348;2022-11-15T00:31:13;13.60;99.90
21582;DHT22;10952;50.836;4.348;2022-11-15T00:33:39;13.50;99.90
21582;DHT22;10952;50.836;4.348;2022-11-15T00:36:07;13.50;99.90
21582;DHT22;10952;50.836;4.348;2022-11-15T00:38:36;13.50;99.90
21582;DHT22;10952;50.836;4.348;2022-11-15T00:41:04;13.60;99.90
21582;DHT22;10952;50.836;4.348;2022-11-15T00:43:30;13.60;99.90
21582;DHT22;10952;50.836;4.348;2022-11-15T00:45:55;13.60;99.90
21582;DHT22;10952;50.836;4.348;2022-11-15T00:48:21;13.60;99.90
21582;DHT22;10952;50.836;4.348;2022-11-15T00:50:47;13.60;99.90
21582;DHT22;10952;50.836;4.348;2022-11-15T00:53:13;13.60;99.90
21582;DHT22;10952;50.836;4.348;2022-11-15T00:55:39;13.60;99.90
21582;DHT22;10952;50.836;4.348;2022-11-15T00:58:04;13.50;99.90
21582;DHT22;10952;50.836;4.348;2022-11-15T01:00:30;13.60;99.90
21582;DHT22;10952;50.836;4.348;2022-11-15T01:02:56;13.60;99.90
21582;DHT22;10952;50.836;4.348;2022-11-15T01:05:22;13.60;99.90
21582;DHT22;10952;50.836;4.348;2022-11-15T01:07:51;13.60;99.90
21582;DHT22;10952;50.836;4.348;2022-11-15T01:10:18;13.70;99.90
21582;DHT22;10952;50.836;4.348;2022-11-15T01:12:43;13.70;99.90
21582;DHT22;10952;50.836;4.348;2022-11-15T01:15:09;13.60;99.90
21582;DHT22;10952;50.836;4.348;2022-11-15T01:17:35;13.60;99.90
21582;DHT22;10952;50.836;4.348;2022-11-15T01:20:01;13.60;99.90
21582;DHT22;10952;50.836;4.348;2022-11-15T01:22:26;13.60;99.90
21582;DHT22;10952;50.836;4.348;2022-11-15T01:24:52;13.60;99.90
21582;DHT22;10952;50.836;4.348;2022-11-15T01:27:18;13.60;99.90
21582;DHT22;10952;50.836;4.348;2022-11-15T01:29:43;13.50;99.90
21582;DHT22;10952;50.836;4.348;2022-11-15T01:32:09;13.50;99.90
21582;DHT22;10952;50.836;4.348;2022-11-15T01:34:35;13.50;99.90
21582;DHT22;10952;50.836;4.348;2022-11-15T01:37:00;13.50;99.90
21582;DHT22;10952;50.836;4.348;2022-11-15T01:39:26;13.50;99.90
21582;DHT22;10952;50.836;4.348;2022-11-15T01:41:52;13.50;99.90
21582;DHT22;10952;50.836;4.348;2022-11-15T01:47:04;13.50;99.90
21582;DHT22;10952;50.836;4.348;2022-11-15T01:49:34;13.50;99.90
21582;DHT22;10952;50.836;4.348;2022-11-15T01:52:02;13.40;99.90
21582;DHT22;10952;50.836;4.348;2022-11-15T01:54:29;13.40;99.90
21582;DHT22;10952;50.836;4.348;2022-11-15T01:57:02;13.40;99.90
21582;DHT22;10952;50.836;4.348;2022-11-15T01:59:29;13.40;99.90
21582;DHT22;10952;50.836;4.348;2022-11-15T02:01:55;13.50;99.90
21582;DHT22;10952;50.836;4.348;2022-11-15T02:04:34;13.50;99.90
21582;DHT22;10952;50.836;4.348;2022-11-15T02:07:03;13.50;99.90
21582;DHT22;10952;50.836;4.348;2022-11-15T02:09:30;13.60;99.90
21582;DHT22;10952;50.836;4.348;2022-11-15T02:11:56;13.50;99.90
21582;DHT22;10952;50.836;4.348;2022-11-15T02:14:23;13.50;99.90
21582;DHT22;10952;50.836;4.348;2022-11-15T02:17:05;13.50;99.90
21582;DHT22;10952;50.836;4.348;2022-11-15T02:19:46;13.50;99.90
21582;DHT22;10952;50.836;4.348;2022-11-15T02:22:51;13.40;99.90
21582;DHT22;10952;50.836;4.348;2022-11-15T02:25:41;13.40;99.90
21582;DHT22;10952;50.836;4.348;2022-11-15T02:36:39;13.40;99.90
21582;DHT22;10952;50.836;4.348;2022-11-15T02:39:18;13.50;99.90
21582;DHT22;10952;50.836;4.348;2022-11-15T02:42:25;13.50;99.90
21582;DHT22;10952;50.836;4.348;2022-11-15T02:45:15;13.60;99.90
21582;DHT22;10952;50.836;4.348;2022-11-15T02:47:44;13.50;99.90
21582;DHT22;10952;50.836;4.348;2022-11-15T02:50:14;13.50;99.90
21582;DHT22;10952;50.836;4.348;2022-11-15T02:52:43;13.50;99.90
21582;DHT22;10952;50.836;4.348;2022-11-15T02:55:35;13.50;99.90
21582;DHT22;10952;50.836;4.348;2022-11-15T03:06:43;13.60;99.90
21582;DHT22;10952;50.836;4.348;2022-11-15T03:09:35;13.50;99.90
21582;DHT22;10952;50.836;4.348;2022-11-15T03:15:00;13.50;99.90
21582;DHT22;10952;50.836;4.348;2022-11-15T03:17:29;13.40;99.90
21582;DHT22;10952;50.836;4.348;2022-11-15T03:19:58;13.50;99.90
21582;DHT22;10952;50.836;4.348;2022-11-15T03:22:28;13.50;99.90
21582;DHT22;10952;50.836;4.348;2022-11-15T03:24:58;13.50;99.90
21582;DHT22;10952;50.836;4.348;2022-11-15T03:27:31;13.50;99.90
21582;DHT22;10952;50.836;4.348;2022-11-15T03:30:02;13.50;99.90
21582;DHT22;10952;50.836;4.348;2022-11-15T03:32:32;13.50;99.90
21582;DHT22;10952;50.836;4.348;2022-11-15T03:35:09;13.50;99.90
21582;DHT22;10952;50.836;4.348;2022-11-15T03:41:04;13.40;99.90
21582;DHT22;10952;50.836;4.348;2022-11-15T03:43:57;13.20;99.90
21582;DHT22;10952;50.836;4.348;2022-11-15T03:46:33;13.20;99.90
21582;DHT22;10952;50.836;4.348;2022-11-15T03:49:09;13.30;99.90
21582;DHT22;10952;50.836;4.348;2022-11-15T03:51:35;13.30;99.90
21582;DHT22;10952;50.836;4.348;2022-11-15T03:54:05;13.30;99.90
21582;DHT22;10952;50.836;4.348;2022-11-15T03:56:31;13.30;99.90
21582;DHT22;10952;50.836;4.348;2022-11-15T03:58:57;13.20;99.90
21582;DHT22;10952;50.836;4.348;2022-11-15T04:01:22;13.30;99.90
21582;DHT22;10952;50.836;4.348;2022-11-15T04:03:48;13.30;99.90
21582;DHT22;10952;50.836;4.348;2022-11-15T04:06:14;13.20;99.90
21582;DHT22;10952;50.836;4.348;2022-11-15T04:08:39;13.10;99.90
21582;DHT22;10952;50.836;4.348;2022-11-15T04:11:05;13.00;99.90
21582;DHT22;10952;50.836;4.348;2022-11-15T04:13:31;13.10;99.90
21582;DHT22;10952;50.836;4.348;2022-11-15T04:15:56;13.10;99.90
21582;DHT22;10952;50.836;4.348;2022-11-15T04:18:22;13.10;99.90
21582;DHT22;10952;50.836;4.348;2022-11-15T04:20:47;13.20;99.90
21582;DHT22;10952;50.836;4.348;2022-11-15T04:23:32;13.10;99.90
21582;DHT22;10952;50.836;4.348;2022-11-15T04:26:18;13.10;99.90
21582;DHT22;10952;50.836;4.348;2022-11-15T04:28:45;13.20;99.90
21582;DHT22;10952;50.836;4.348;2022-11-15T04:31:29;13.10;99.90
21582;DHT22;10952;50.836;4.348;2022-11-15T04:33:56;13.10;99.90
21582;DHT22;10952;50.836;4.348;2022-11-15T04:36:22;13.10;99.90
21582;DHT22;10952;50.836;4.348;2022-11-15T04:39:06;13.10;99.90
21582;DHT22;10952;50.836;4.348;2022-11-15T04:41:31;13.10;99.90
21582;DHT22;10952;50.836;4.348;2022-11-15T04:43:57;13.10;99.90
21582;DHT22;10952;50.836;4.348;2022-11-15T04:46:24;12.90;99.90
21582;DHT22;10952;50.836;4.348;2022-11-15T04:48:50;13.00;99.90
21582;DHT22;10952;50.836;4.348;2022-11-15T04:51:16;12.90;99.90
21582;DHT22;10952;50.836;4.348;2022-11-15T04:53:42;12.90;99.90
21582;DHT22;10952;50.836;4.348;2022-11-15T04:56:08;12.80;99.90
21582;DHT22;10952;50.836;4.348;2022-11-15T04:58:34;12.80;99.90
21582;DHT22;10952;50.836;4.348;2022-11-15T05:01:10;12.80;99.90
21582;DHT22;10952;50.836;4.348;2022-11-15T05:03:36;12.90;99.90
21582;DHT22;10952;50.836;4.348;2022-11-15T05:06:20;12.80;99.90
21582;DHT22;10952;50.836;4.348;2022-11-15T05:08:45;12.70;99.90
21582;DHT22;10952;50.836;4.348;2022-11-15T05:11:11;12.60;99.90
21582;DHT22;10952;50.836;4.348;2022-11-15T05:13:36;12.60;99.90
21582;DHT22;10952;50.836;4.348;2022-11-15T05:16:02;12.50;99.90
21582;DHT22;10952;50.836;4.348;2022-11-15T05:18:28;12.50;99.90
21582;DHT22;10952;50.836;4.348;2022-11-15T05:20:53;12.40;99.90
21582;DHT22;10952;50.836;4.348;2022-11-15T05:23:19;12.40;99.90
21582;DHT22;10952;50.836;4.348;2022-11-15T05:25:45;12.40;99.90
21582;DHT22;10952;50.836;4.348;2022-11-15T05:28:10;12.40;99.90
21582;DHT22;10952;50.836;4.348;2022-11-15T05:30:36;12.30;99.90
21582;DHT22;10952;50.836;4.348;2022-11-15T05:33:01;12.30;99.90
21582;DHT22;10952;50.836;4.348;2022-11-15T05:35:34;12.30;99.90
21582;DHT22;10952;50.836;4.348;2022-11-15T05:38:02;12.30;99.90
21582;DHT22;10952;50.836;4.348;2022-11-15T05:40:29;12.30;99.90
21582;DHT22;10952;50.836;4.348;2022-11-15T05:42:56;12.20;99.90
21582;DHT22;10952;50.836;4.348;2022-11-15T05:45:22;12.20;99.90
21582;DHT22;10952;50.836;4.348;2022-11-15T05:47:48;12.10;99.90
21582;DHT22;10952;50.836;4.348;2022-11-15T05:50:15;12.10;99.90
21582;DHT22;10952;50.836;4.348;2022-11-15T05:52:42;12.10;99.90
21582;DHT22;10952;50.836;4.348;2022-11-15T05:55:09;12.10;99.90
21582;DHT22;10952;50.836;4.348;2022-11-15T05:57:35;12.10;99.90
21582;DHT22;10952;50.836;4.348;2022-11-15T06:00:03;12.10;99.90
21582;DHT22;10952;50.836;4.348;2022-11-15T06:02:29;12.20;99.90
21582;DHT22;10952;50.836;4.348;2022-11-15T06:04:55;12.10;99.90
21582;DHT22;10952;50.836;4.348;2022-11-15T06:07:20;12.00;99.90
21582;DHT22;10952;50.836;4.348;2022-11-15T06:09:46;12.00;99.90
21582;DHT22;10952;50.836;4.348;2022-11-15T06:12:12;12.00;99.90
21582;DHT22;10952;50.836;4.348;2022-11-15T06:14:37;11.80;99.90
21582;DHT22;10952;50.836;4.348;2022-11-15T06:17:03;11.80;99.90
21582;DHT22;10952;50.836;4.348;2022-11-15T06:19:28;11.80;99.90
21582;DHT22;10952;50.836;4.348;2022-11-15T06:21:59;11.90;99.90
21582;DHT22;10952;50.836;4.348;2022-11-15T06:24:24;11.80;99.90
21582;DHT22;10952;50.836;4.348;2022-11-15T06:26:50;11.90;99.90
21582;DHT22;10952;50.836;4.348;2022-11-15T06:29:16;11.90;99.90
21582;DHT22;10952;50.836;4.348;2022-11-15T06:31:41;11.90;99.90
21582;DHT22;10952;50.836;4.348;2022-11-15T06:34:07;11.90;99.90
21582;DHT22;10952;50.836;4.348;2022-11-15T06:36:35;11.80;99.90
21582;DHT22;10952;50.836;4.348;2022-11-15T06:39:02;11.70;99.90
21582;DHT22;10952;50.836;4.348;2022-11-15T06:41:28;11.70;99.90
21582;DHT22;10952;50.836;4.348;2022-11-15T06:43:53;11.60;99.90
21582;DHT22;10952;50.836;4.348;2022-11-15T06:46:19;11.70;99.90
21582;DHT22;10952;50.836;4.348;2022-11-15T06:48:45;11.60;99.90
21582;DHT22;10952;50.836;4.348;2022-11-15T06:51:10;11.70;99.90
21582;DHT22;10952;50.836;4.348;2022-11-15T06:53:36;11.70;99.90
21582;DHT22;10952;50.836;4.348;2022-11-15T06:56:06;11.60;99.90
21582;DHT22;10952;50.836;4.348;2022-11-15T06:58:32;11.60;99.90
21582;DHT22;10952;50.836;4.348;2022-11-15T07:01:00;11.60;99.90
21582;DHT22;10952;50.836;4.348;2022-11-15T07:03:25;11.50;99.90
21582;DHT22;10952;50.836;4.348;2022-11-15T07:05:55;11.50;99.90
21582;DHT22;10952;50.836;4.348;2022-11-15T07:08:22;11.40;99.90
21582;DHT22;10952;50.836;4.348;2022-11-15T07:10:49;11.40;99.90
21582;DHT22;10952;50.836;4.348;2022-11-15T07:13:15;11.40;99.90
21582;DHT22;10952;50.836;4.348;2022-11-15T07:15:40;11.40;99.90
21582;DHT22;10952;50.836;4.348;2022-11-15T07:18:06;11.30;99.90
21582;DHT22;10952;50.836;4.348;2022-11-15T07:20:32;11.30;99.90
21582;DHT22;10952;50.836;4.348;2022-11-15T07:23:04;11.40;99.90
21582;DHT22;10952;50.836;4.348;2022-11-15T07:25:31;11.40;99.90
21582;DHT22;10952;50.836;4.348;2022-11-15T07:27:57;11.30;99.90
21582;DHT22;10952;50.836;4.348;2022-11-15T07:30:25;11.30;99.90
21582;DHT22;10952;50.836;4.348;2022-11-15T07:32:58;11.20;99.90
21582;DHT22;10952;50.836;4.348;2022-11-15T07:35:25;11.20;99.90
21582;DHT22;10952;50.836;4.348;2022-11-15T07:37:59;11.10;99.90
21582;DHT22;10952;50.836;4.348;2022-11-15T07:40:27;11.10;99.90
21582;DHT22;10952;50.836;4.348;2022-11-15T07:42:59;11.20;99.90
21582;DHT22;10952;50.836;4.348;2022-11-15T07:45:25;11.10;99.90
21582;DHT22;10952;50.836;4.348;2022-11-15T07:47:54;11.10;99.90
21582;DHT22;10952;50.836;4.348;2022-11-15T07:50:22;11.10;99.90
21582;DHT22;10952;50.836;4.348;2022-11-15T07:52:52;11.10;99.90
21582;DHT22;10952;50.836;4.348;2022-11-15T07:55:18;11.10;99.90
21582;DHT22;10952;50.836;4.348;2022-11-15T07:57:43;11.20;99.90
21582;DHT22;10952;50.836;4.348;2022-11-15T08:00:09;11.20;99.90
21582;DHT22;10952;50.836;4.348;2022-11-15T08:02:35;11.20;99.90
21582;DHT22;10952;50.836;4.348;2022-11-15T08:05:01;11.10;99.90
21582;DHT22;10952;50.836;4.348;2022-11-15T08:07:29;11.10;99.90
21582;DHT22;10952;50.836;4.348;2022-11-15T08:09:55;11.10;99.90
21582;DHT22;10952;50.836;4.348;2022-11-15T08:12:21;11.10;99.90
21582;DHT22;10952;50.836;4.348;2022-11-15T08:14:47;11.10;99.90
21582;DHT22;10952;50.836;4.348;2022-11-15T08:17:13;11.10;99.90
21582;DHT22;10952;50.836;4.348;2022-11-15T08:19:39;11.10;99.90
21582;DHT22;10952;50.836;4.348;2022-11-15T08:22:04;11.10;99.90
21582;DHT22;10952;50.836;4.348;2022-11-15T08:24:30;11.10;99.90
21582;DHT22;10952;50.836;4.348;2022-11-15T08:26:56;11.20;99.90
21582;DHT22;10952;50.836;4.348;2022-11-15T08:29:21;11.10;99.90
21582;DHT22;10952;50.836;4.348;2022-11-15T08:31:47;11.10;99.90
21582;DHT22;10952;50.836;4.348;2022-11-15T08:34:12;11.20;99.90
21582;DHT22;10952;50.836;4.348;2022-11-15T08:36:38;11.10;99.90
21582;DHT22;10952;50.836;4.348;2022-11-15T08:39:04;11.20;99.90
21582;DHT22;10952;50.836;4.348;2022-11-15T08:41:35;11.20;99.90
21582;DHT22;10952;50.836;4.348;2022-11-15T08:44:02;11.20;99.90
21582;DHT22;10952;50.836;4.348;2022-11-15T08:46:27;11.30;99.90
21582;DHT22;10952;50.836;4.348;2022-11-15T08:48:53;11.30;99.90
21582;DHT22;10952;50.836;4.348;2022-11-15T08:51:19;11.30;99.90
21582;DHT22;10952;50.836;4.348;2022-11-15T08:53:44;11.30;99.90
21582;DHT22;10952;50.836;4.348;2022-11-15T08:56:12;11.30;99.90
21582;DHT22;10952;50.836;4.348;2022-11-15T08:58:39;11.30;99.90
21582;DHT22;10952;50.836;4.348;2022-11-15T09:01:05;11.40;99.90
21582;DHT22;10952;50.836;4.348;2022-11-15T09:03:32;11.40;99.90
21582;DHT22;10952;50.836;4.348;2022-11-15T09:06:00;11.50;99.90
21582;DHT22;10952;50.836;4.348;2022-11-15T09:08:29;11.50;99.90
21582;DHT22;10952;50.836;4.348;2022-11-15T09:10:55;11.50;99.90
21582;DHT22;10952;50.836;4.348;2022-11-15T09:13:21;11.50;99.90
21582;DHT22;10952;50.836;4.348;2022-11-15T09:15:47;11.50;99.90
21582;DHT22;10952;50.836;4.348;2022-11-15T09:18:13;11.50;99.90
21582;DHT22;10952;50.836;4.348;2022-11-15T09:20:39;11.60;99.90
21582;DHT22;10952;50.836;4.348;2022-11-15T09:23:05;11.60;99.90
21582;DHT22;10952;50.836;4.348;2022-11-15T09:25:31;11.70;99.90
21582;DHT22;10952;50.836;4.348;2022-11-15T09:27:58;11.70;99.90
21582;DHT22;10952;50.836;4.348;2022-11-15T09:30:24;11.80;99.90
21582;DHT22;10952;50.836;4.348;2022-11-15T09:32:50;11.90;99.90
21582;DHT22;10952;50.836;4.348;2022-11-15T09:35:16;11.90;99.90
21582;DHT22;10952;50.836;4.348;2022-11-15T09:37:42;12.00;99.90
21582;DHT22;10952;50.836;4.348;2022-11-15T09:40:13;11.90;99.90
21582;DHT22;10952;50.836;4.348;2022-11-15T09:50:52;12.20;99.90
21582;DHT22;10952;50.836;4.348;2022-11-15T09:53:37;12.20;99.90
21582;DHT22;10952;50.836;4.348;2022-11-15T09:56:18;12.40;99.90
21582;DHT22;10952;50.836;4.348;2022-11-15T10:04:27;12.40;99.90
21582;DHT22;10952;50.836;4.348;2022-11-15T10:07:02;12.50;99.90
21582;DHT22;10952;50.836;4.348;2022-11-15T10:09:39;12.60;99.90
21582;DHT22;10952;50.836;4.348;2022-11-15T10:12:08;12.60;99.90
21582;DHT22;10952;50.836;4.348;2022-11-15T10:14:35;12.80;99.90
21582;DHT22;10952;50.836;4.348;2022-11-15T10:23:04;12.90;99.90
21582;DHT22;10952;50.836;4.348;2022-11-15T10:25:33;13.30;99.90
21582;DHT22;10952;50.836;4.348;2022-11-15T10:30:48;14.20;99.90
21582;DHT22;10952;50.836;4.348;2022-11-15T10:35:42;14.50;99.90
21582;DHT22;10952;50.836;4.348;2022-11-15T10:38:10;14.70;99.90
21582;DHT22;10952;50.836;4.348;2022-11-15T10:40:37;14.90;99.90
21582;DHT22;10952;50.836;4.348;2022-11-15T10:45:34;14.70;99.90
21582;DHT22;10952;50.836;4.348;2022-11-15T10:50:41;14.30;99.90
21582;DHT22;10952;50.836;4.348;2022-11-15T10:53:32;14.20;99.90
21582;DHT22;10952;50.836;4.348;2022-11-15T10:56:05;14.20;99.90
21582;DHT22;10952;50.836;4.348;2022-11-15T10:58:43;13.90;99.90
21582;DHT22;10952;50.836;4.348;2022-11-15T11:01:11;14.00;99.90
21582;DHT22;10952;50.836;4.348;2022-11-15T11:03:39;14.20;99.90
21582;DHT22;10952;50.836;4.348;2022-11-15T11:06:08;14.10;99.90
21582;DHT22;10952;50.836;4.348;2022-11-15T11:08:34;14.00;99.90
21582;DHT22;10952;50.836;4.348;2022-11-15T11:11:01;14.00;99.90
21582;DHT22;10952;50.836;4.348;2022-11-15T11:13:30;14.10;99.90
21582;DHT22;10952;50.836;4.348;2022-11-15T11:33:16;14.80;99.90
21582;DHT22;10952;50.836;4.348;2022-11-15T11:35:51;14.70;99.90
21582;DHT22;10952;50.836;4.348;2022-11-15T11:46:56;14.70;99.90
21582;DHT22;10952;50.836;4.348;2022-11-15T11:49:28;14.60;99.90
21582;DHT22;10952;50.836;4.348;2022-11-15T12:00:27;14.20;99.90
21582;DHT22;10952;50.836;4.348;2022-11-15T12:06:19;14.30;99.90
21582;DHT22;10952;50.836;4.348;2022-11-15T12:08:58;14.30;99.90
21582;DHT22;10952;50.836;4.348;2022-11-15T12:13:58;14.30;99.90
21582;DHT22;10952;50.836;4.348;2022-11-15T12:16:30;14.50;99.90
21582;DHT22;10952;50.836;4.348;2022-11-15T12:19:00;14.50;99.90
21582;DHT22;10952;50.836;4.348;2022-11-15T12:21:53;14.40;99.90
21582;DHT22;10952;50.836;4.348;2022-11-15T12:24:28;14.40;99.90
21582;DHT22;10952;50.836;4.348;2022-11-15T12:30:04;14.40;99.90
21582;DHT22;10952;50.836;4.348;2022-11-15T12:32:37;14.30;99.90
21582;DHT22;10952;50.836;4.348;2022-11-15T12:35:05;14.40;99.90
21582;DHT22;10952;50.836;4.348;2022-11-15T12:45:01;14.40;99.90
21582;DHT22;10952;50.836;4.348;2022-11-15T12:47:27;14.40;99.90
21582;DHT22;10952;50.836;4.348;2022-11-15T12:49:53;14.50;99.90
21582;DHT22;10952;50.836;4.348;2022-11-15T12:52:19;14.60;99.90
21582;DHT22;10952;50.836;4.348;2022-11-15T12:54:52;14.70;99.90
21582;DHT22;10952;50.836;4.348;2022-11-15T12:57:30;14.60;99.90
21582;DHT22;10952;50.836;4.348;2022-11-15T12:59:59;14.60;99.90
21582;DHT22;10952;50.836;4.348;2022-11-15T13:07:57;14.60;99.90
21582;DHT22;10952;50.836;4.348;2022-11-15T13:12:54;14.80;99.90
21582;DHT22;10952;50.836;4.348;2022-11-15T13:18:28;14.70;99.90
21582;DHT22;10952;50.836;4.348;2022-11-15T13:20:54;14.70;99.90
21582;DHT22;10952;50.836;4.348;2022-11-15T13:23:21;14.70;99.90
21582;DHT22;10952;50.836;4.348;2022-11-15T13:34:15;14.50;99.90
21582;DHT22;10952;50.836;4.348;2022-11-15T13:36:41;14.60;99.90
21582;DHT22;10952;50.836;4.348;2022-11-15T13:39:31;14.50;99.90
21582;DHT22;10952;50.836;4.348;2022-11-15T13:41:57;14.40;99.90
21582;DHT22;10952;50.836;4.348;2022-11-15T13:44:31;14.50;99.90
21582;DHT22;10952;50.836;4.348;2022-11-15T13:47:13;14.50;99.90
21582;DHT22;10952;50.836;4.348;2022-11-15T13:49:41;14.50;99.90
21582;DHT22;10952;50.836;4.348;2022-11-15T13:52:10;14.50;99.90
21582;DHT22;10952;50.836;4.348;2022-11-15T13:54:47;14.70;99.90
21582;DHT22;10952;50.836;4.348;2022-11-15T13:57:27;14.70;99.90
21582;DHT22;10952;50.836;4.348;2022-11-15T14:00:03;14.70;99.90
21582;DHT22;10952;50.836;4.348;2022-11-15T14:02:34;14.70;99.90
21582;DHT22;10952;50.836;4.348;2022-11-15T14:07:29;14.70;99.90
21582;DHT22;10952;50.836;4.348;2022-11-15T14:09:55;14.70;99.90
21582;DHT22;10952;50.836;4.348;2022-11-15T14:14:52;14.60;99.90
21582;DHT22;10952;50.836;4.348;2022-11-15T14:17:34;14.60;99.90
21582;DHT22;10952;50.836;4.348;2022-11-15T14:20:01;14.50;99.90
21582;DHT22;10952;50.836;4.348;2022-11-15T14:22:28;14.60;99.90
21582;DHT22;10952;50.836;4.348;2022-11-15T14:27:32;14.50;99.90
21582;DHT22;10952;50.836;4.348;2022-11-15T14:30:00;14.50;99.90
21582;DHT22;10952;50.836;4.348;2022-11-15T14:32:37;14.40;99.90
21582;DHT22;10952;50.836;4.348;2022-11-15T14:35:03;14.40;99.90
21582;DHT22;10952;50.836;4.348;2022-11-15T14:37:31;14.40;99.90
21582;DHT22;10952;50.836;4.348;2022-11-15T14:40:01;14.30;99.90
21582;DHT22;10952;50.836;4.348;2022-11-15T14:42:27;14.30;99.90
21582;DHT22;10952;50.836;4.348;2022-11-15T14:44:53;14.20;99.90
21582;DHT22;10952;50.836;4.348;2022-11-15T14:47:19;14.30;99.90
21582;DHT22;10952;50.836;4.348;2022-11-15T14:49:45;14.20;99.90
21582;DHT22;10952;50.836;4.348;2022-11-15T14:54:53;14.20;99.90
21582;DHT22;10952;50.836;4.348;2022-11-15T14:57:19;14.20;99.90
21582;DHT22;10952;50.836;4.348;2022-11-15T14:59:45;14.10;99.90
21582;DHT22;10952;50.836;4.348;2022-11-15T15:02:20;14.10;99.90
21582;DHT22;10952;50.836;4.348;2022-11-15T15:04:46;14.10;99.90
21582;DHT22;10952;50.836;4.348;2022-11-15T15:07:12;14.00;99.90
21582;DHT22;10952;50.836;4.348;2022-11-15T15:09:38;14.00;99.90
21582;DHT22;10952;50.836;4.348;2022-11-15T15:12:04;14.00;99.90
21582;DHT22;10952;50.836;4.348;2022-11-15T15:14:32;13.90;99.90
21582;DHT22;10952;50.836;4.348;2022-11-15T15:16:57;13.90;99.90
21582;DHT22;10952;50.836;4.348;2022-11-15T15:19:23;13.90;99.90
21582;DHT22;10952;50.836;4.348;2022-11-15T15:21:49;13.90;99.90
21582;DHT22;10952;50.836;4.348;2022-11-15T15:24:15;13.90;99.90
21582;DHT22;10952;50.836;4.348;2022-11-15T15:26:41;13.80;99.90
21582;DHT22;10952;50.836;4.348;2022-11-15T15:29:08;13.80;99.90
21582;DHT22;10952;50.836;4.348;2022-11-15T15:31:34;13.90;99.90
21582;DHT22;10952;50.836;4.348;2022-11-15T15:34:00;13.80;99.90
21582;DHT22;10952;50.836;4.348;2022-11-15T15:36:26;13.80;99.90
21582;DHT22;10952;50.836;4.348;2022-11-15T15:38:52;13.70;99.90
21582;DHT22;10952;50.836;4.348;2022-11-15T15:41:17;13.70;99.90
21582;DHT22;10952;50.836;4.348;2022-11-15T15:43:43;13.80;99.90
21582;DHT22;10952;50.836;4.348;2022-11-15T15:46:15;13.70;99.90
21582;DHT22;10952;50.836;4.348;2022-11-15T15:48:41;13.60;99.90
21582;DHT22;10952;50.836;4.348;2022-11-15T15:51:07;13.60;99.90
21582;DHT22;10952;50.836;4.348;2022-11-15T15:53:34;13.50;99.90
21582;DHT22;10952;50.836;4.348;2022-11-15T15:55:59;13.60;99.90
21582;DHT22;10952;50.836;4.348;2022-11-15T15:58:25;13.60;99.90
21582;DHT22;10952;50.836;4.348;2022-11-15T16:00:51;13.60;99.90
21582;DHT22;10952;50.836;4.348;2022-11-15T16:03:16;13.50;99.90
21582;DHT22;10952;50.836;4.348;2022-11-15T16:05:42;13.50;99.90
21582;DHT22;10952;50.836;4.348;2022-11-15T16:08:28;13.50;99.90
21582;DHT22;10952;50.836;4.348;2022-11-15T16:10:55;13.50;99.90
21582;DHT22;10952;50.836;4.348;2022-11-15T16:13:20;13.40;99.90
21582;DHT22;10952;50.836;4.348;2022-11-15T16:15:49;13.40;99.90
21582;DHT22;10952;50.836;4.348;2022-11-15T16:18:17;13.40;99.90
21582;DHT22;10952;50.836;4.348;2022-11-15T16:20:45;13.50;99.90
21582;DHT22;10952;50.836;4.348;2022-11-15T16:23:15;13.40;99.90
21582;DHT22;10952;50.836;4.348;2022-11-15T16:25:46;13.40;99.90
21582;DHT22;10952;50.836;4.348;2022-11-15T16:28:26;13.40;99.90
21582;DHT22;10952;50.836;4.348;2022-11-15T16:31:05;13.50;99.90
21582;DHT22;10952;50.836;4.348;2022-11-15T16:33:33;13.40;99.90
21582;DHT22;10952;50.836;4.348;2022-11-15T16:35:58;13.60;99.90
21582;DHT22;10952;50.836;4.348;2022-11-15T16:38:24;13.60;99.90
21582;DHT22;10952;50.836;4.348;2022-11-15T16:40:50;13.50;99.90
21582;DHT22;10952;50.836;4.348;2022-11-15T16:43:15;13.50;99.90
21582;DHT22;10952;50.836;4.348;2022-11-15T16:45:41;13.50;99.90
21582;DHT22;10952;50.836;4.348;2022-11-15T16:48:22;13.50;99.90
21582;DHT22;10952;50.836;4.348;2022-11-15T16:50:49;13.60;99.90
21582;DHT22;10952;50.836;4.348;2022-11-15T16:53:15;13.60;99.90
21582;DHT22;10952;50.836;4.348;2022-11-15T16:55:41;13.50;99.90
21582;DHT22;10952;50.836;4.348;2022-11-15T16:58:08;13.50;99.90
21582;DHT22;10952;50.836;4.348;2022-11-15T17:00:34;13.50;99.90
21582;DHT22;10952;50.836;4.348;2022-11-15T17:03:00;13.60;99.90
21582;DHT22;10952;50.836;4.348;2022-11-15T17:05:25;13.60;99.90
21582;DHT22;10952;50.836;4.348;2022-11-15T17:07:54;13.50;99.90
21582;DHT22;10952;50.836;4.348;2022-11-15T17:10:21;13.50;99.90
21582;DHT22;10952;50.836;4.348;2022-11-15T17:12:47;13.50;99.90
21582;DHT22;10952;50.836;4.348;2022-11-15T17:15:12;13.40;99.90
21582;DHT22;10952;50.836;4.348;2022-11-15T17:17:39;13.40;99.90
21582;DHT22;10952;50.836;4.348;2022-11-15T17:20:06;13.40;99.90
21582;DHT22;10952;50.836;4.348;2022-11-15T17:22:35;13.40;99.90
21582;DHT22;10952;50.836;4.348;2022-11-15T17:25:02;13.50;99.90
21582;DHT22;10952;50.836;4.348;2022-11-15T17:27:27;13.40;99.90
21582;DHT22;10952;50.836;4.348;2022-11-15T17:29:53;13.50;99.90
21582;DHT22;10952;50.836;4.348;2022-11-15T17:32:18;13.40;99.90
21582;DHT22;10952;50.836;4.348;2022-11-15T17:34:44;13.40;99.90
21582;DHT22;10952;50.836;4.348;2022-11-15T17:37:09;13.40;99.90
21582;DHT22;10952;50.836;4.348;2022-11-15T17:39:35;13.40;99.90
21582;DHT22;10952;50.836;4.348;2022-11-15T17:42:01;13.40;99.90
21582;DHT22;10952;50.836;4.348;2022-11-15T17:44:26;13.40;99.90
21582;DHT22;10952;50.836;4.348;2022-11-15T17:46:52;13.40;99.90
21582;DHT22;10952;50.836;4.348;2022-11-15T17:49:18;13.30;99.90
21582;DHT22;10952;50.836;4.348;2022-11-15T17:51:44;13.30;99.90
21582;DHT22;10952;50.836;4.348;2022-11-15T17:54:10;13.30;99.90
21582;DHT22;10952;50.836;4.348;2022-11-15T17:56:38;13.30;99.90